Time;durP1;ratioP1;P1;durP2;ratioP2;P2;SDS_P1;SDS_P2;PMS_P1;PMS_P2;Temp;Humidity;BMP_temperature;BMP_pressure;BME280_temperature;BME280_humidity;BME280_pressure;Samples;Min_cycle;Max_cycle;Signal;HPM_P1;HPM_P2
2024/04/18 00:01:16;;;;;;;40.67;11.68;;;;;;;19.55;100.00;100078.53;11219700;26;20018;-80
2024/04/18 00:06:40;;;;;;;39.55;11.25;;;;;;;19.61;100.00;100075.66;11210436;26;20004;-81
2024/04/18 00:12:08;;;;;;;34.78;9.85;;;;;;;19.64;100.00;100074.66;11212878;26;20039;-80
2024/04/18 00:17:47;;;;;;;31.35;9.32;;;;;;;19.68;100.00;100087.91;11218004;26;20456;-81
2024/04/18 00:23:20;;;;;;;36.00;9.85;;;;;;;19.69;100.00;100095.00;11229216;26;20007;-81
2024/04/18 00:29:03;;;;;;;34.00;10.85;;;;;;;19.67;100.00;100106.72;11213148;26;20007;-81
2024/04/18 00:34:35;;;;;;;34.95;9.63;;;;;;;19.72;100.00;100111.00;11247973;26;20014;-82
2024/04/18 00:40:00;;;;;;;30.70;10.27;;;;;;;19.70;100.00;100117.31;11212054;26;20021;-81
2024/04/18 00:45:33;;;;;;;40.28;9.75;;;;;;;19.64;100.00;100126.41;11236925;26;20434;-83
2024/04/18 00:51:19;;;;;;;36.85;9.80;;;;;;;19.63;100.00;100126.47;11249494;26;20087;-81
2024/04/18 00:56:48;;;;;;;36.20;11.80;;;;;;;19.62;100.00;100130.97;11217464;26;20078;-82
2024/04/18 01:02:26;;;;;;;43.45;10.35;;;;;;;19.62;100.00;100130.09;11247119;26;20015;-81
2024/04/18 01:08:15;;;;;;;38.60;9.50;;;;;;;19.66;100.00;100137.09;11296332;26;20018;-82
2024/04/18 01:13:54;;;;;;;46.17;9.93;;;;;;;19.56;100.00;100127.59;11215165;26;20428;-81
2024/04/18 01:19:21;;;;;;;39.33;10.43;;;;;;;19.51;100.00;100127.72;11215659;26;20007;-81
2024/04/18 01:24:48;;;;;;;45.67;9.95;;;;;;;19.46;100.00;100129.69;11204299;26;20069;-80
2024/04/18 01:30:16;;;;;;;33.53;8.18;;;;;;;19.39;100.00;100115.56;11280630;26;20002;-81
2024/04/18 01:35:40;;;;;;;32.00;9.02;;;;;;;19.38;100.00;100105.78;11271805;26;20443;-82
2024/04/18 01:41:18;;;;;;;36.08;7.18;;;;;;;19.42;100.00;100117.28;11313272;26;20067;-82
2024/04/18 01:47:00;;;;;;;38.17;8.15;;;;;;;19.43;100.00;100135.06;11314824;26;20012;-81
2024/04/18 01:52:28;;;;;;;37.88;7.43;;;;;;;19.44;100.00;100139.50;11312030;26;20051;-81
2024/04/18 01:58:00;;;;;;;40.28;8.55;;;;;;;19.39;100.00;100144.13;11305297;26;19999;-81
2024/04/18 02:03:32;;;;;;;38.45;8.82;;;;;;;19.31;100.00;100159.53;11290885;26;20010;-81
2024/04/18 02:09:11;;;;;;;35.10;7.93;;;;;;;19.19;100.00;100171.50;11256747;26;20069;-83
2024/04/18 02:14:48;;;;;;;39.45;8.52;;;;;;;19.14;100.00;100177.91;11248667;26;19995;-81
2024/04/18 02:20:15;;;;;;;42.33;9.02;;;;;;;19.20;100.00;100183.06;11248835;26;20006;-81
2024/04/18 02:25:39;;;;;;;43.53;8.73;;;;;;;19.10;100.00;100193.16;11247478;26;20010;-82
2024/04/18 02:31:04;;;;;;;45.55;8.30;;;;;;;19.08;100.00;100206.59;11327367;26;20075;-80
2024/04/18 02:36:49;;;;;;;39.42;8.20;;;;;;;19.14;100.00;100193.97;11237837;26;20444;-81
2024/04/18 02:42:13;;;;;;;44.50;8.38;;;;;;;19.01;100.00;100202.34;11315937;26;19998;-82
2024/04/18 02:47:55;;;;;;;44.80;8.93;;;;;;;18.95;100.00;100205.19;11354824;25;20076;-82
2024/04/18 02:53:42;;;;;;;40.85;8.60;;;;;;;18.91;100.00;100221.34;11311164;26;20479;-83
2024/04/18 02:59:06;;;;;;;42.15;9.30;;;;;;;18.88;100.00;100232.13;11305840;26;20002;-81
2024/04/18 03:04:45;;;;;;;44.38;8.80;;;;;;;18.81;100.00;100231.44;11345308;26;20002;-83
2024/04/18 03:10:13;;;;;;;40.55;8.98;;;;;;;18.68;100.00;100246.91;11347367;26;20011;-83
2024/04/18 03:15:55;;;;;;;39.05;9.70;;;;;;;18.66;100.00;100261.22;11272525;26;20083;-79
2024/04/18 03:21:20;;;;;;;44.55;9.05;;;;;;;18.60;100.00;100254.25;11316587;26;20770;-77
2024/04/18 03:26:52;;;;;;;41.80;8.98;;;;;;;18.56;100.00;100267.75;11320485;26;20006;-78
2024/04/18 03:32:18;;;;;;;38.40;9.35;;;;;;;18.50;100.00;100275.88;11247136;26;20022;-81
2024/04/18 03:37:42;;;;;;;45.90;9.98;;;;;;;18.41;100.00;100268.97;11294852;26;20022;-82
2024/04/18 03:43:27;;;;;;;47.55;10.55;;;;;;;18.37;100.00;100277.97;11261202;26;20037;-80
2024/04/18 03:48:51;;;;;;;52.75;9.60;;;;;;;18.38;100.00;100281.53;11260043;26;20014;-83
2024/04/18 03:54:15;;;;;;;44.28;9.68;;;;;;;18.43;100.00;100298.31;11288939;26;20002;-82
2024/04/18 03:59:51;;;;;;;36.33;8.93;;;;;;;18.49;100.00;100303.53;11348727;26;20036;-82
2024/04/18 04:05:15;;;;;;;40.38;9.02;;;;;;;18.55;100.00;100308.72;11301711;26;20010;-82
2024/04/18 04:10:40;;;;;;;37.90;8.88;;;;;;;18.69;100.00;100330.69;11289904;26;20668;-82
2024/04/18 04:16:07;;;;;;;88.28;65.70;;;;;;;18.84;100.00;100340.97;11297713;26;19998;-82
2024/04/18 04:21:40;;;;;;;34.10;10.23;;;;;;;19.12;100.00;100349.19;11267527;26;20017;-80
2024/04/18 04:27:07;;;;;;;54.38;26.80;;;;;;;19.42;100.00;100363.59;11279191;26;20030;-83
2024/04/18 04:32:33;;;;;;;45.88;21.45;;;;;;;19.69;100.00;100365.50;11260080;26;20027;-82
2024/04/18 04:37:57;;;;;;;26.50;7.28;;;;;;;19.95;100.00;100363.91;11251682;26;20011;-83
2024/04/18 04:43:29;;;;;;;22.88;6.60;;;;;;;20.42;100.00;100374.09;11297314;26;20224;-82
2024/04/18 04:48:56;;;;;;;29.13;7.07;;;;;;;20.69;100.00;100375.91;11312971;26;20014;-82
2024/04/18 04:54:20;;;;;;;26.90;7.45;;;;;;;20.59;100.00;100374.47;11206407;26;20519;-82
2024/04/18 04:59:44;;;;;;;28.52;6.45;;;;;;;20.81;100.00;100379.13;11233939;26;20002;-82
2024/04/18 05:05:11;;;;;;;29.95;6.03;;;;;;;20.99;100.00;100382.09;11306895;26;19998;-83
2024/04/18 05:10:35;;;;;;;29.33;6.00;;;;;;;21.26;100.00;100385.69;11296343;26;20001;-82
2024/04/18 05:15:59;;;;;;;22.48;5.28;;;;;;;21.73;100.00;100392.06;11311459;26;20009;-83
2024/04/18 05:21:29;;;;;;;22.83;5.35;;;;;;;22.16;100.00;100388.72;11294008;26;20008;-82
2024/04/18 05:27:11;;;;;;;28.85;6.05;;;;;;;22.57;100.00;100388.91;11325188;26;20010;-83
2024/04/18 05:32:36;;;;;;;24.08;6.18;;;;;;;22.96;100.00;100390.03;11252238;26;20007;-83
2024/04/18 05:38:10;;;;;;;25.27;5.55;;;;;;;23.46;100.00;100384.31;11266515;26;20017;-82
2024/04/18 05:43:35;;;;;;;26.40;5.00;;;;;;;23.87;100.00;100392.41;11250722;26;20351;-83
2024/04/18 05:48:59;;;;;;;17.95;5.20;;;;;;;24.43;100.00;100393.38;11240141;26;20022;-81
2024/04/18 05:54:25;;;;;;;22.08;5.47;;;;;;;25.01;100.00;100386.06;11248318;26;20039;-83
2024/04/18 06:00:02;;;;;;;20.27;4.55;;;;;;;25.58;98.37;100391.31;11207070;26;20003;-83
2024/04/18 06:05:37;;;;;;;20.27;5.22;;;;;;;26.03;93.35;100405.09;11288583;26;20069;-81
2024/04/18 06:11:18;;;;;;;20.45;4.65;;;;;;;26.64;85.40;100409.00;11307996;26;20383;-82
2024/04/18 06:16:42;;;;;;;19.60;4.80;;;;;;;27.07;78.69;100404.72;11271602;26;20334;-83
2024/04/18 06:22:07;;;;;;;19.00;4.50;;;;;;;27.33;70.13;100404.94;11305854;26;20013;-87
2024/04/18 06:27:34;;;;;;;16.10;4.07;;;;;;;27.59;65.04;100413.41;11247111;26;20006;-87
2024/04/18 06:32:59;;;;;;;20.15;4.57;;;;;;;28.05;61.03;100425.03;11248240;26;20015;-90
2024/04/18 06:38:23;;;;;;;21.58;4.63;;;;;;;28.42;56.94;100424.47;11322196;26;20021;-89
2024/04/18 06:43:50;;;;;;;20.27;5.43;;;;;;;28.65;52.48;100422.13;11299699;26;20030;-87
2024/04/18 06:49:14;;;;;;;;;;;;;;;28.99;52.17;100420.84;11309431;26;20053;-86
2024/04/18 06:54:38;;;;;;;17.90;3.97;;;;;;;29.22;49.16;100433.75;11320477;26;19923;-83
2024/04/18 07:00:05;;;;;;;19.05;4.63;;;;;;;29.44;46.76;100433.22;11243988;26;20010;-87
2024/04/18 07:05:29;;;;;;;23.20;9.55;;;;;;;29.64;44.92;100430.03;11302588;26;20002;-87
2024/04/18 07:11:11;;;;;;;17.58;3.97;;;;;;;29.34;43.42;100441.16;11308458;26;20012;-87
2024/04/18 07:16:39;;;;;;;14.88;4.10;;;;;;;29.23;43.21;100435.50;11268644;26;20007;-89
2024/04/18 07:22:21;;;;;;;15.95;4.00;;;;;;;29.30;42.99;100451.31;11275584;26;20026;-90
2024/04/18 07:27:52;;;;;;;22.83;4.43;;;;;;;29.59;42.99;100459.41;11248385;26;20012;-88
2024/04/18 07:33:18;;;;;;;15.23;4.25;;;;;;;29.39;42.12;100457.16;11280040;26;20003;-88
2024/04/18 07:38:43;;;;;;;18.17;4.45;;;;;;;28.89;42.45;100467.66;11242687;26;20017;-88
2024/04/18 07:44:11;;;;;;;17.42;3.92;;;;;;;28.31;44.13;100478.59;11285601;26;20048;-88
2024/04/18 07:49:38;;;;;;;21.58;5.90;;;;;;;27.94;45.85;100484.53;11199399;26;20013;-86
2024/04/18 07:55:02;;;;;;;13.52;4.60;;;;;;;27.25;48.33;100477.72;11260910;26;20012;-88
2024/04/18 08:00:27;;;;;;;17.55;5.05;;;;;;;27.91;49.89;100501.84;11214685;26;20465;-86
2024/04/18 08:05:54;;;;;;;20.35;4.20;;;;;;;28.81;46.08;100499.03;11283149;26;20022;-89
2024/04/18 08:11:18;;;;;;;11.77;3.88;;;;;;;28.58;45.42;100484.16;11267511;26;20007;-88
2024/04/18 08:16:42;;;;;;;19.08;4.60;;;;;;;28.52;45.03;100500.84;11241294;26;20015;-87
2024/04/18 08:22:10;;;;;;;15.27;3.97;;;;;;;29.27;44.00;100508.66;11179598;26;20004;-88
2024/04/18 08:27:36;;;;;;;16.67;3.80;;;;;;;30.15;40.64;100495.47;11302631;26;20010;-88
2024/04/18 08:33:00;;;;;;;19.07;4.40;;;;;;;30.23;40.31;100483.06;11282299;26;20017;-87
2024/04/18 08:38:27;;;;;;;16.45;4.25;;;;;;;30.43;39.60;100506.19;11363832;26;20034;-87
2024/04/18 08:43:52;;;;;;;15.05;4.03;;;;;;;30.36;39.17;100524.81;11301472;26;20002;-89
2024/04/18 08:49:18;;;;;;;12.70;3.88;;;;;;;30.95;38.41;100530.59;11177592;26;20058;-87
2024/04/18 08:54:45;;;;;;;12.27;3.45;;;;;;;31.12;37.21;100521.19;11247561;26;20075;-89
2024/04/18 09:00:10;;;;;;;11.43;2.88;;;;;;;30.77;37.91;100534.66;11225492;26;20004;-87
2024/04/18 09:05:37;;;;;;;13.35;3.22;;;;;;;30.37;38.81;100529.28;11275993;26;20003;-88
2024/04/18 09:11:06;;;;;;;15.18;3.30;;;;;;;31.15;37.29;100529.16;11211411;26;20010;-88
2024/04/18 09:16:31;;;;;;;16.65;3.92;;;;;;;31.34;36.68;100553.22;11260225;26;20446;-87
2024/04/18 09:21:55;;;;;;;12.38;3.60;;;;;;;31.38;36.54;100539.22;11178257;26;20463;-87
2024/04/18 09:27:22;;;;;;;11.07;2.78;;;;;;;31.48;35.97;100532.13;11353057;26;20045;-87
2024/04/18 09:32:47;;;;;;;12.23;4.10;;;;;;;31.61;35.79;100545.75;11303153;26;19998;-89
2024/04/18 09:38:16;;;;;;;20.45;4.05;;;;;;;31.30;36.24;100544.41;11311868;26;20086;-88
2024/04/18 09:43:50;;;;;;;15.15;3.08;;;;;;;31.85;35.46;100548.47;11327203;26;20002;-88
2024/04/18 09:49:18;;;;;;;12.57;3.50;;;;;;;31.28;35.88;100554.56;11315416;26;19999;-88
2024/04/18 09:54:43;;;;;;;17.07;4.03;;;;;;;31.08;36.24;100564.22;11229285;26;20013;-89
2024/04/18 10:00:13;;;;;;;19.60;3.43;;;;;;;31.76;35.66;100554.66;11222987;26;20051;-89
2024/04/18 10:05:44;;;;;;;14.52;3.83;;;;;;;32.11;35.43;100563.72;11309230;26;20256;-88
2024/04/18 10:11:10;;;;;;;11.93;3.08;;;;;;;32.40;34.66;100551.44;11360891;26;20012;-88
2024/04/18 10:16:48;;;;;;;15.38;3.45;;;;;;;32.67;34.09;100553.88;11292329;26;20468;-88
2024/04/18 10:22:17;;;;;;;17.27;3.42;;;;;;;32.68;33.72;100554.75;11203872;26;20008;-87
2024/04/18 10:27:45;;;;;;;18.65;3.90;;;;;;;31.82;34.08;100548.72;11275203;26;20010;-87
2024/04/18 10:33:16;;;;;;;11.90;3.00;;;;;;;31.14;35.02;100550.13;11317436;26;19998;-85
2024/04/18 10:38:45;;;;;;;16.42;3.80;;;;;;;31.39;35.53;100562.81;11321596;26;20172;-86
2024/04/18 10:44:10;;;;;;;16.58;3.85;;;;;;;31.56;35.09;100553.38;11374091;26;20012;-88
2024/04/18 10:49:38;;;;;;;14.63;3.00;;;;;;;31.37;35.26;100556.63;11320241;26;20423;-84
2024/04/18 10:55:02;;;;;;;12.52;3.70;;;;;;;31.46;35.20;100553.19;11318095;26;19998;-94
2024/04/18 11:00:27;;;;;;;12.13;3.50;;;;;;;31.49;35.06;100552.97;11326599;26;20070;-86
2024/04/18 11:05:59;;;;;;;9.80;3.10;;;;;;;31.54;35.18;100553.50;11267844;26;20549;-90
2024/04/18 11:11:27;;;;;;;10.82;3.03;;;;;;;31.49;35.20;100549.38;11303372;26;20430;-90
2024/04/18 11:17:00;;;;;;;14.98;3.03;;;;;;;31.27;35.13;100555.53;11290814;26;20017;-88
2024/04/18 11:22:29;;;;;;;10.95;3.05;;;;;;;30.82;35.52;100568.78;11252930;26;20006;-91
2024/04/18 11:27:55;;;;;;;12.38;3.10;;;;;;;30.23;36.17;100581.13;11293775;26;20013;-90
2024/04/18 11:33:23;;;;;;;11.27;3.17;;;;;;;29.91;36.36;100566.97;11250179;26;20017;-89
2024/04/18 11:38:50;;;;;;;13.40;3.55;;;;;;;29.90;36.46;100573.38;11255191;26;20784;-89
2024/04/18 11:44:14;;;;;;;10.80;3.10;;;;;;;29.78;36.59;100574.22;11242457;26;20062;-89
2024/04/18 11:49:38;;;;;;;10.77;3.22;;;;;;;29.72;36.85;100569.19;11278481;26;20018;-83
2024/04/18 11:55:06;;;;;;;15.25;2.78;;;;;;;29.59;36.42;100579.16;11210816;26;20002;-83
2024/04/18 12:00:34;;;;;;;13.13;2.75;;;;;;;29.63;36.30;100587.00;11191093;26;20000;-82
2024/04/18 12:06:04;;;;;;;13.27;3.10;;;;;;;29.51;36.19;100574.19;11251655;26;20732;-83
2024/04/18 12:11:32;;;;;;;11.50;3.22;;;;;;;29.44;35.81;100577.44;11298436;26;20026;-84
2024/04/18 12:17:08;;;;;;;10.18;2.70;;;;;;;29.35;35.60;100569.84;11339287;26;20035;-84
2024/04/18 12:22:39;;;;;;;10.00;3.35;;;;;;;29.49;35.27;100567.09;11267263;26;20002;-83
2024/04/18 12:28:17;;;;;;;10.73;2.72;;;;;;;29.83;34.22;100566.59;11290101;26;20013;-81
2024/04/18 12:33:43;;;;;;;13.30;3.28;;;;;;;29.64;34.19;100556.09;11298271;26;19994;-83
2024/04/18 12:39:07;;;;;;;10.38;2.53;;;;;;;29.58;33.90;100551.06;11323687;26;20043;-82
2024/04/18 12:44:34;;;;;;;11.95;3.10;;;;;;;29.76;33.43;100551.66;11291078;26;20079;-83
2024/04/18 12:50:18;;;;;;;11.20;3.03;;;;;;;29.82;33.62;100553.97;11259330;26;20014;-83
2024/04/18 12:55:43;;;;;;;10.10;3.28;;;;;;;29.81;33.59;100548.63;11302789;26;20022;-83
2024/04/18 13:01:10;;;;;;;11.63;3.20;;;;;;;29.23;34.66;100542.47;11227158;26;20423;-82
2024/04/18 13:06:40;;;;;;;11.93;3.17;;;;;;;28.93;35.06;100545.31;11247070;26;20054;-82
2024/04/18 13:12:23;;;;;;;12.95;3.08;;;;;;;28.65;35.62;100564.31;11328674;26;20014;-81
2024/04/18 13:17:55;;;;;;;11.15;3.55;;;;;;;28.26;36.27;100567.63;11256861;26;20238;-83
2024/04/18 13:23:19;;;;;;;15.68;2.88;;;;;;;27.83;36.91;100563.00;11271218;26;20009;-83
2024/04/18 13:28:44;;;;;;;11.13;2.90;;;;;;;27.29;37.92;100571.50;11274944;26;20064;-82
2024/04/18 13:34:15;;;;;;;16.65;3.25;;;;;;;27.14;39.59;100583.19;11282576;26;20009;-81
2024/04/18 13:39:44;;;;;;;12.85;3.30;;;;;;;27.17;39.40;100572.19;11262901;26;20015;-81
2024/04/18 13:45:09;;;;;;;13.70;3.28;;;;;;;27.10;39.68;100580.75;11322173;26;20010;-82
2024/04/18 13:50:54;;;;;;;12.02;3.90;;;;;;;27.04;40.04;100608.19;11246528;26;20016;-81
2024/04/18 13:56:18;;;;;;;12.90;3.25;;;;;;;27.20;39.74;100618.09;11306476;26;20025;-81
2024/04/18 14:02:02;;;;;;;17.17;3.05;;;;;;;27.35;39.78;100616.38;11219197;26;20030;-82
2024/04/18 14:07:38;;;;;;;11.43;3.45;;;;;;;27.39;39.60;100604.38;11207685;26;20039;-81
2024/04/18 14:13:22;;;;;;;11.35;3.42;;;;;;;27.49;39.94;100608.34;11262370;26;20063;-83
2024/04/18 14:18:53;;;;;;;14.77;2.90;;;;;;;27.67;40.38;100611.84;11236354;26;20003;-83
2024/04/18 14:24:35;;;;;;;15.40;3.35;;;;;;;27.97;40.08;100614.59;11240451;26;20042;-83
2024/04/18 14:30:00;;;;;;;15.27;3.53;;;;;;;27.64;40.47;100623.75;11242353;26;19999;-81
2024/04/18 14:35:30;;;;;;;17.13;4.07;;;;;;;27.26;41.31;100615.03;11223034;26;19999;-82
2024/04/18 14:41:04;;;;;;;16.10;3.30;;;;;;;27.04;42.21;100611.78;11165464;26;20033;-82
2024/04/18 14:46:28;;;;;;;14.77;3.20;;;;;;;27.08;42.33;100618.78;11219787;26;20198;-82
2024/04/18 14:51:56;;;;;;;10.13;2.60;;;;;;;27.29;41.48;100624.84;11261679;26;20061;-82
2024/04/18 14:57:25;;;;;;;14.60;3.95;;;;;;;27.26;41.86;100620.47;11279949;26;20052;-82
2024/04/18 15:03:11;;;;;;;15.95;3.08;;;;;;;26.98;41.93;100629.22;11253953;26;20010;-81
2024/04/18 15:08:42;;;;;;;15.02;3.47;;;;;;;26.61;42.59;100639.38;11177278;26;20446;-81
2024/04/18 15:14:24;;;;;;;12.52;3.67;;;;;;;26.25;43.77;100642.19;11253573;26;20417;-82
2024/04/18 15:19:48;;;;;;;15.95;3.33;;;;;;;25.90;44.84;100650.19;11279123;26;19998;-82
2024/04/18 15:25:30;;;;;;;17.13;4.20;;;;;;;25.73;45.75;100639.34;11250922;26;20005;-83
2024/04/18 15:30:57;;;;;;;17.42;3.65;;;;;;;25.50;47.12;100635.00;11253787;26;20003;-81
2024/04/18 15:36:21;;;;;;;17.13;3.25;;;;;;;25.13;49.83;100638.59;11252547;26;20002;-81
2024/04/18 15:41:48;;;;;;;24.58;3.90;;;;;;;24.89;52.85;100647.75;11230659;26;20015;-81
2024/04/18 15:47:15;;;;;;;16.98;3.95;;;;;;;24.72;57.36;100667.44;11179704;26;20000;-81
2024/04/18 15:52:42;;;;;;;16.58;3.80;;;;;;;24.74;60.27;100662.84;11286331;26;19999;-82
2024/04/18 15:58:06;;;;;;;14.60;3.40;;;;;;;24.67;63.90;100660.47;11225776;26;20439;-80
2024/04/18 16:03:39;;;;;;;18.63;4.22;;;;;;;24.49;67.72;100659.44;11240370;26;20002;-82
2024/04/18 16:09:23;;;;;;;27.42;4.70;;;;;;;24.34;70.81;100666.41;11200769;26;20019;-81
2024/04/18 16:15:08;;;;;;;25.55;5.38;;;;;;;24.32;72.78;100662.00;11187727;26;20860;-81
2024/04/18 16:20:59;;;;;;;20.05;4.00;;;;;;;24.32;73.38;100670.09;11243799;26;20010;-82
2024/04/18 16:26:35;;;;;;;22.48;4.70;;;;;;;24.18;73.74;100668.81;11251431;26;20043;-81
2024/04/18 16:32:02;;;;;;;21.60;4.43;;;;;;;24.04;76.06;100683.81;11240045;26;20388;-81
2024/04/18 16:37:49;;;;;;;26.10;4.65;;;;;;;23.93;79.25;100678.00;11176895;26;20015;-81
2024/04/18 16:43:13;;;;;;;25.88;4.75;;;;;;;23.84;81.09;100681.94;11227064;26;20011;-82
2024/04/18 16:48:55;;;;;;;20.33;5.75;;;;;;;23.70;83.24;100682.47;11223557;26;20640;-81
2024/04/18 16:54:21;;;;;;;27.63;4.75;;;;;;;23.50;86.56;100687.78;11250268;26;19999;-81
2024/04/18 16:59:57;;;;;;;25.10;4.85;;;;;;;23.36;88.08;100687.41;11215687;26;20039;-81
2024/04/18 17:05:23;;;;;;;28.55;5.75;;;;;;;23.20;91.15;100702.41;11180861;26;19998;-81
2024/04/18 17:10:51;;;;;;;33.40;8.30;;;;;;;23.02;93.01;100709.34;11265035;26;20043;-81
2024/04/18 17:16:33;;;;;;;27.02;5.82;;;;;;;22.68;95.79;100709.63;11222875;26;20552;-82
2024/04/18 17:22:16;;;;;;;29.08;4.97;;;;;;;22.52;98.12;100709.28;11244516;26;20014;-80
2024/04/18 17:27:42;;;;;;;28.92;6.40;;;;;;;22.32;100.00;100713.59;11226280;26;20002;-80
2024/04/18 17:33:07;;;;;;;24.65;5.95;;;;;;;22.15;100.00;100724.91;11217771;26;20038;-79
2024/04/18 17:38:51;;;;;;;31.85;7.55;;;;;;;22.01;100.00;100736.09;11199620;26;20015;-80
2024/04/18 17:44:27;;;;;;;32.45;7.95;;;;;;;21.98;100.00;100733.53;11218283;26;20007;-78
2024/04/18 17:49:51;;;;;;;27.40;6.05;;;;;;;21.87;100.00;100749.94;11204476;26;20455;-81
2024/04/18 17:55:22;;;;;;;25.02;6.88;;;;;;;21.84;100.00;100749.16;11258033;26;20452;-83
2024/04/18 18:00:48;;;;;;;23.38;5.43;;;;;;;21.88;100.00;100764.25;11205067;26;20010;-83
2024/04/18 18:06:12;;;;;;;29.75;5.97;;;;;;;21.86;100.00;100772.34;11216113;26;20069;-87
2024/04/18 18:11:36;;;;;;;26.30;6.88;;;;;;;21.73;100.00;100783.53;11217765;26;20014;-81
2024/04/18 18:17:04;;;;;;;22.15;5.55;;;;;;;21.82;100.00;100792.22;11195874;26;19998;-79
2024/04/18 18:22:28;;;;;;;22.98;6.88;;;;;;;21.75;100.00;100795.13;11217209;26;20109;-77
2024/04/18 18:27:52;;;;;;;26.83;6.85;;;;;;;21.75;100.00;100803.19;11259977;26;20014;-80
2024/04/18 18:33:28;;;;;;;29.02;7.28;;;;;;;21.74;100.00;100810.34;11214715;26;20019;-83
2024/04/18 18:38:52;;;;;;;28.35;8.45;;;;;;;21.87;100.00;100816.25;11240275;26;20017;-85
2024/04/18 18:44:16;;;;;;;21.30;5.47;;;;;;;21.88;100.00;100808.16;11245768;26;20022;-80
2024/04/18 18:49:43;;;;;;;21.63;5.20;;;;;;;21.78;100.00;100820.13;11230464;26;19999;-85
2024/04/18 18:55:08;;;;;;;20.33;5.75;;;;;;;21.67;100.00;100824.91;11245965;26;20003;-91
2024/04/18 19:00:32;;;;;;;26.30;7.45;;;;;;;21.64;100.00;100827.69;11213785;26;20071;-85
2024/04/18 19:06:12;;;;;;;20.55;5.65;;;;;;;21.66;100.00;100838.41;11191981;26;19996;-81
2024/04/18 19:11:37;;;;;;;28.13;5.95;;;;;;;21.80;100.00;100836.19;11218106;26;19999;-80
2024/04/18 19:17:01;;;;;;;25.15;5.25;;;;;;;21.78;100.00;100835.34;11230371;26;20003;-76
2024/04/18 19:22:28;;;;;;;21.63;5.20;;;;;;;21.81;100.00;100840.63;11245672;26;19999;-78
2024/04/18 19:27:52;;;;;;;21.52;5.43;;;;;;;21.91;100.00;100841.25;11300737;26;20014;-82
2024/04/18 19:33:16;;;;;;;24.38;5.43;;;;;;;21.69;100.00;100841.00;11253128;26;19999;-80
2024/04/18 19:38:44;;;;;;;25.75;5.85;;;;;;;21.48;100.00;100829.03;11251784;26;19998;-79
2024/04/18 19:44:23;;;;;;;17.63;5.53;;;;;;;21.41;100.00;100817.59;11299346;26;20080;-79
2024/04/18 19:49:47;;;;;;;18.02;5.07;;;;;;;21.27;100.00;100825.13;11244619;26;20000;-80
2024/04/18 19:55:15;;;;;;;25.90;5.70;;;;;;;21.35;100.00;100822.25;11230606;26;20482;-81
2024/04/18 20:00:39;;;;;;;;;;;;;;;21.42;100.00;100821.16;11258903;26;20042;-81
2024/04/18 20:06:04;;;;;;;27.73;6.07;;;;;;;21.23;100.00;100836.00;11277213;26;19924;-81
2024/04/18 20:11:51;;;;;;;24.17;5.47;;;;;;;21.02;100.00;100838.31;11304828;26;20446;-82
2024/04/18 20:17:18;;;;;;;26.45;5.38;;;;;;;20.89;100.00;100841.34;11276605;26;20021;-82
2024/04/18 20:22:42;;;;;;;24.15;5.82;;;;;;;20.68;100.00;100840.97;11304002;26;20001;-84
2024/04/18 20:28:11;;;;;;;20.95;5.35;;;;;;;20.72;100.00;100836.41;11287531;26;20009;-84
2024/04/18 20:33:36;;;;;;;26.77;6.35;;;;;;;20.54;100.00;100837.75;11301440;26;20003;-82
2024/04/18 20:39:00;;;;;;;26.45;5.72;;;;;;;20.58;100.00;100839.44;11325011;26;20457;-80
2024/04/18 20:44:28;;;;;;;24.67;6.20;;;;;;;20.64;100.00;100833.94;11298345;26;20016;-82
2024/04/18 20:49:52;;;;;;;27.10;6.57;;;;;;;20.56;100.00;100833.22;11300918;26;20447;-82
2024/04/18 20:55:16;;;;;;;22.35;5.40;;;;;;;20.43;100.00;100834.44;11324642;26;20020;-82
2024/04/18 21:00:46;;;;;;;25.08;5.88;;;;;;;20.48;100.00;100821.78;11246125;26;20003;-82
2024/04/18 21:06:10;;;;;;;25.80;5.80;;;;;;;20.46;100.00;100820.09;11323769;26;20002;-82
2024/04/18 21:11:35;;;;;;;25.25;5.43;;;;;;;20.35;100.00;100814.94;11322449;26;20002;-81
2024/04/18 21:17:05;;;;;;;31.77;6.65;;;;;;;20.34;100.00;100809.66;11303727;26;20003;-81
2024/04/18 21:22:29;;;;;;;25.70;6.05;;;;;;;20.37;100.00;100820.28;11305959;26;19998;-81
2024/04/18 21:27:53;;;;;;;22.13;5.47;;;;;;;20.45;100.00;100826.34;11288858;26;20003;-81
2024/04/18 21:33:19;;;;;;;23.42;5.53;;;;;;;20.46;100.00;100828.13;11293309;26;20006;-81
2024/04/18 21:38:43;;;;;;;26.60;5.57;;;;;;;20.34;100.00;100826.63;11322134;26;20008;-81
2024/04/18 21:44:08;;;;;;;24.50;6.30;;;;;;;20.36;100.00;100814.03;11322761;26;20002;-82
2024/04/18 21:49:34;;;;;;;24.65;5.65;;;;;;;20.37;100.00;100813.13;11306428;26;19994;-82
2024/04/18 21:54:58;;;;;;;24.92;6.10;;;;;;;20.35;100.00;100817.63;11316720;26;20013;-82
2024/04/18 22:00:22;;;;;;;22.05;5.25;;;;;;;20.09;100.00;100820.88;11278983;26;20012;-81
2024/04/18 22:05:58;;;;;;;21.67;5.97;;;;;;;19.88;100.00;100816.03;11281029;26;20047;-81
2024/04/18 22:11:22;;;;;;;23.42;5.93;;;;;;;19.80;100.00;100826.91;11318100;26;19998;-79
2024/04/18 22:16:46;;;;;;;32.00;6.78;;;;;;;19.85;100.00;100825.00;11362091;26;20003;-79
2024/04/18 22:22:14;;;;;;;21.63;6.13;;;;;;;19.79;100.00;100825.13;11321449;26;20462;-80
2024/04/18 22:27:38;;;;;;;25.63;5.90;;;;;;;19.61;100.00;100820.16;11319864;26;20013;-81
2024/04/18 22:33:03;;;;;;;24.20;6.05;;;;;;;19.62;100.00;100834.44;11324916;26;19999;-81
2024/04/18 22:38:30;;;;;;;27.17;6.72;;;;;;;19.54;100.00;100831.03;11294615;26;20009;-81
2024/04/18 22:43:54;;;;;;;25.83;5.88;;;;;;;19.53;100.00;100830.16;11320660;26;20570;-79
2024/04/18 22:49:18;;;;;;;23.83;5.72;;;;;;;19.44;100.00;100822.25;11289654;26;20515;-80
2024/04/18 22:54:45;;;;;;;25.73;5.82;;;;;;;19.38;100.00;100838.44;11303788;26;20001;-81
2024/04/18 23:00:13;;;;;;;29.23;6.18;;;;;;;19.34;100.00;100831.38;11320119;26;20086;-79
2024/04/18 23:05:38;;;;;;;25.05;5.85;;;;;;;19.33;100.00;100835.84;11301834;26;20006;-80
2024/04/18 23:11:04;;;;;;;25.38;5.65;;;;;;;19.23;100.00;100820.00;11327631;26;20434;-80
2024/04/18 23:16:28;;;;;;;20.88;5.63;;;;;;;19.17;100.00;100829.00;11317045;26;20008;-80
2024/04/18 23:21:52;;;;;;;23.27;5.68;;;;;;;19.22;100.00;100815.56;11323201;26;20013;-78
2024/04/18 23:27:37;;;;;;;24.08;6.22;;;;;;;19.28;100.00;100816.31;11326522;26;20002;-79
2024/04/18 23:33:01;;;;;;;25.08;5.93;;;;;;;19.12;100.00;100820.19;11323881;26;20064;-77
2024/04/18 23:38:25;;;;;;;16.88;5.30;;;;;;;19.02;100.00;100811.47;11324917;26;20007;-77
2024/04/18 23:43:52;;;;;;;21.45;5.80;;;;;;;19.02;100.00;100800.75;11346870;26;20002;-78
2024/04/18 23:49:16;;;;;;;19.05;4.90;;;;;;;19.13;100.00;100805.91;11342583;26;20011;-77
2024/04/18 23:54:40;;;;;;;29.83;6.55;;;;;;;19.11;100.00;100808.59;11374960;26;20052;-77
